Terminal Aerodrome Forecast
Issued by NWS Green Bay, WI

Home | Current Version | Previous Version | Graphics & Text | Print | Product List | Glossary On
Versions: 1 2 3 4 5 6 7 8 9 10 11 12 13 14 15 16 17 18 19 20 21 22 23 24 25 26 27 28 29 30 31 32 33 34 35 36 37
000
FTUS43 KGRB 291900 AAA
TAFGRB
TAF AMD
KGRB 291900Z 2919/3018 VRB03KT P6SM OVC022
     FM292100 14005KT P6SM BKN025
     FM300100 VRB03KT P6SM BKN030
     FM300400 00000KT 5SM BR SCT002 SCT020
     FM300900 00000KT 1SM BR SCT002
      TEMPO 3009/3013 1/4SM FG VV002
     FM301500 22005KT 5SM BR BKN012=

USA.gov is the U.S. government's official web portal to all federal, state and local government web resources and services.